sensor_id;sensor_type;location;lat;lon;timestamp;temperature;humidity
56123;DHT22;42426;46.104;19.656;2023-06-22T00:01:54;666.40;2201.60
56123;DHT22;42426;46.104;19.656;2023-06-22T00:04:19;666.50;2201.60
56123;DHT22;42426;46.104;19.656;2023-06-22T00:06:45;666.40;2201.60
56123;DHT22;42426;46.104;19.656;2023-06-22T00:09:11;666.40;2201.60
56123;DHT22;42426;46.104;19.656;2023-06-22T00:11:37;666.40;2201.60
56123;DHT22;42426;46.104;19.656;2023-06-22T00:14:05;666.40;2201.60
56123;DHT22;42426;46.104;19.656;2023-06-22T00:16:32;666.30;2201.60
56123;DHT22;42426;46.104;19.656;2023-06-22T00:18:57;666.20;2201.60
56123;DHT22;42426;46.104;19.656;2023-06-22T00:21:26;666.20;2201.60
56123;DHT22;42426;46.104;19.656;2023-06-22T00:23:52;666.10;2201.60
56123;DHT22;42426;46.104;19.656;2023-06-22T00:26:19;666.10;2201.60
56123;DHT22;42426;46.104;19.656;2023-06-22T00:28:46;666.10;2201.60
56123;DHT22;42426;46.104;19.656;2023-06-22T00:31:12;666.00;2201.60
56123;DHT22;42426;46.104;19.656;2023-06-22T00:33:38;666.00;2201.60
56123;DHT22;42426;46.104;19.656;2023-06-22T00:36:04;666.00;2201.60
56123;DHT22;42426;46.104;19.656;2023-06-22T00:38:30;665.90;2201.60
56123;DHT22;42426;46.104;19.656;2023-06-22T00:40:56;665.90;2201.60
56123;DHT22;42426;46.104;19.656;2023-06-22T00:43:22;665.90;2201.60
56123;DHT22;42426;46.104;19.656;2023-06-22T00:45:49;665.80;2201.60
56123;DHT22;42426;46.104;19.656;2023-06-22T00:48:15;665.80;2201.60
56123;DHT22;42426;46.104;19.656;2023-06-22T00:50:41;665.70;2201.60
56123;DHT22;42426;46.104;19.656;2023-06-22T00:53:09;665.70;2201.60
56123;DHT22;42426;46.104;19.656;2023-06-22T00:55:41;665.60;2201.60
56123;DHT22;42426;46.104;19.656;2023-06-22T00:58:16;665.60;2201.60
56123;DHT22;42426;46.104;19.656;2023-06-22T01:00:42;665.60;2201.60
56123;DHT22;42426;46.104;19.656;2023-06-22T01:03:08;665.60;2201.60
56123;DHT22;42426;46.104;19.656;2023-06-22T01:05:35;665.60;2201.60
56123;DHT22;42426;46.104;19.656;2023-06-22T01:08:27;640.90;2176.00
56123;DHT22;42426;46.104;19.656;2023-06-22T01:11:03;640.90;2176.00
56123;DHT22;42426;46.104;19.656;2023-06-22T01:16:30;640.80;2176.00
56123;DHT22;42426;46.104;19.656;2023-06-22T01:19:00;640.80;2176.00
56123;DHT22;42426;46.104;19.656;2023-06-22T01:21:29;640.70;2176.00
56123;DHT22;42426;46.104;19.656;2023-06-22T01:24:01;640.80;2176.00
56123;DHT22;42426;46.104;19.656;2023-06-22T01:29:16;640.70;2176.00
56123;DHT22;42426;46.104;19.656;2023-06-22T01:31:43;640.60;2176.00
56123;DHT22;42426;46.104;19.656;2023-06-22T01:34:11;640.50;2176.00
56123;DHT22;42426;46.104;19.656;2023-06-22T01:36:39;640.50;2201.60
56123;DHT22;42426;46.104;19.656;2023-06-22T01:39:05;640.50;2176.00
56123;DHT22;42426;46.104;19.656;2023-06-22T01:41:36;640.50;2176.00
56123;DHT22;42426;46.104;19.656;2023-06-22T01:44:05;640.40;2176.00
56123;DHT22;42426;46.104;19.656;2023-06-22T01:46:34;640.40;2176.00
56123;DHT22;42426;46.104;19.656;2023-06-22T01:49:00;640.40;2176.00
56123;DHT22;42426;46.104;19.656;2023-06-22T01:51:27;640.40;2176.00
56123;DHT22;42426;46.104;19.656;2023-06-22T01:53:52;640.40;2201.60
56123;DHT22;42426;46.104;19.656;2023-06-22T01:56:19;640.30;2176.00
56123;DHT22;42426;46.104;19.656;2023-06-22T01:58:56;640.30;2201.60
56123;DHT22;42426;46.104;19.656;2023-06-22T02:01:28;640.20;2201.60
56123;DHT22;42426;46.104;19.656;2023-06-22T02:04:07;640.20;2176.00
56123;DHT22;42426;46.104;19.656;2023-06-22T02:06:37;640.20;2201.60
56123;DHT22;42426;46.104;19.656;2023-06-22T02:09:10;640.10;2201.60
56123;DHT22;42426;46.104;19.656;2023-06-22T02:11:37;640.10;2201.60
56123;DHT22;42426;46.104;19.656;2023-06-22T02:14:05;640.10;2201.60
56123;DHT22;42426;46.104;19.656;2023-06-22T02:16:32;640.00;2201.60
56123;DHT22;42426;46.104;19.656;2023-06-22T02:19:01;640.00;2201.60
56123;DHT22;42426;46.104;19.656;2023-06-22T02:21:29;640.00;2227.20
56123;DHT22;42426;46.104;19.656;2023-06-22T02:23:54;640.10;2227.20
56123;DHT22;42426;46.104;19.656;2023-06-22T02:26:20;615.30;2227.20
56123;DHT22;42426;46.104;19.656;2023-06-22T02:28:46;640.00;2227.20
56123;DHT22;42426;46.104;19.656;2023-06-22T02:31:12;615.30;2227.20
56123;DHT22;42426;46.104;19.656;2023-06-22T02:33:38;615.30;2227.20
56123;DHT22;42426;46.104;19.656;2023-06-22T02:36:04;615.30;2227.20
56123;DHT22;42426;46.104;19.656;2023-06-22T02:38:31;615.30;2227.20
56123;DHT22;42426;46.104;19.656;2023-06-22T02:40:58;615.30;2227.20
56123;DHT22;42426;46.104;19.656;2023-06-22T02:43:25;615.20;2227.20
56123;DHT22;42426;46.104;19.656;2023-06-22T02:45:51;615.20;2227.20
56123;DHT22;42426;46.104;19.656;2023-06-22T02:48:17;615.20;2252.80
56123;DHT22;42426;46.104;19.656;2023-06-22T02:50:43;615.20;2227.20
56123;DHT22;42426;46.104;19.656;2023-06-22T02:53:09;615.20;2252.80
56123;DHT22;42426;46.104;19.656;2023-06-22T02:55:34;615.20;2252.80
56123;DHT22;42426;46.104;19.656;2023-06-22T02:58:00;615.20;2252.80
56123;DHT22;42426;46.104;19.656;2023-06-22T03:00:30;615.20;2252.80
56123;DHT22;42426;46.104;19.656;2023-06-22T03:02:56;615.20;2252.80
56123;DHT22;42426;46.104;19.656;2023-06-22T03:05:23;615.20;2252.80
56123;DHT22;42426;46.104;19.656;2023-06-22T03:07:49;615.20;2252.80
56123;DHT22;42426;46.104;19.656;2023-06-22T03:10:15;615.20;2252.80
56123;DHT22;42426;46.104;19.656;2023-06-22T03:12:43;615.10;2252.80
56123;DHT22;42426;46.104;19.656;2023-06-22T03:15:11;615.10;2278.40
56123;DHT22;42426;46.104;19.656;2023-06-22T03:17:38;615.00;2278.40
56123;DHT22;42426;46.104;19.656;2023-06-22T03:20:08;615.10;2252.80
56123;DHT22;42426;46.104;19.656;2023-06-22T03:22:39;615.10;2252.80
56123;DHT22;42426;46.104;19.656;2023-06-22T03:25:05;615.10;2252.80
56123;DHT22;42426;46.104;19.656;2023-06-22T03:27:40;615.10;2252.80
56123;DHT22;42426;46.104;19.656;2023-06-22T03:30:07;615.00;2252.80
56123;DHT22;42426;46.104;19.656;2023-06-22T03:32:33;615.10;2278.40
56123;DHT22;42426;46.104;19.656;2023-06-22T03:34:59;615.00;2278.40
56123;DHT22;42426;46.104;19.656;2023-06-22T03:37:26;615.10;2252.80
56123;DHT22;42426;46.104;19.656;2023-06-22T03:39:52;615.10;2252.80
56123;DHT22;42426;46.104;19.656;2023-06-22T03:42:18;615.00;2278.40
56123;DHT22;42426;46.104;19.656;2023-06-22T03:44:44;615.00;2278.40
56123;DHT22;42426;46.104;19.656;2023-06-22T03:47:09;615.00;2278.40
56123;DHT22;42426;46.104;19.656;2023-06-22T03:49:35;615.00;2278.40
56123;DHT22;42426;46.104;19.656;2023-06-22T03:52:02;615.00;2278.40
56123;DHT22;42426;46.104;19.656;2023-06-22T03:54:31;615.00;2278.40
56123;DHT22;42426;46.104;19.656;2023-06-22T03:56:58;615.00;2278.40
56123;DHT22;42426;46.104;19.656;2023-06-22T03:59:24;615.00;2278.40
56123;DHT22;42426;46.104;19.656;2023-06-22T04:01:50;615.00;2278.40
56123;DHT22;42426;46.104;19.656;2023-06-22T04:04:17;615.00;2278.40
56123;DHT22;42426;46.104;19.656;2023-06-22T04:06:43;615.00;2278.40
56123;DHT22;42426;46.104;19.656;2023-06-22T04:09:10;615.00;2278.40
56123;DHT22;42426;46.104;19.656;2023-06-22T04:11:36;615.00;2278.40
56123;DHT22;42426;46.104;19.656;2023-06-22T04:14:02;615.00;2278.40
56123;DHT22;42426;46.104;19.656;2023-06-22T04:16:29;615.00;2278.40
56123;DHT22;42426;46.104;19.656;2023-06-22T04:18:55;615.00;2278.40
56123;DHT22;42426;46.104;19.656;2023-06-22T04:21:20;615.00;2278.40
56123;DHT22;42426;46.104;19.656;2023-06-22T04:23:46;615.00;2278.40
56123;DHT22;42426;46.104;19.656;2023-06-22T04:26:13;615.10;2278.40
56123;DHT22;42426;46.104;19.656;2023-06-22T04:28:40;615.10;2252.80
56123;DHT22;42426;46.104;19.656;2023-06-22T04:31:06;615.10;2252.80
56123;DHT22;42426;46.104;19.656;2023-06-22T04:33:32;615.20;2252.80
56123;DHT22;42426;46.104;19.656;2023-06-22T04:35:59;615.10;2252.80
56123;DHT22;42426;46.104;19.656;2023-06-22T04:38:28;615.20;2252.80
56123;DHT22;42426;46.104;19.656;2023-06-22T04:40:54;615.20;2252.80
56123;DHT22;42426;46.104;19.656;2023-06-22T04:43:20;615.20;2252.80
56123;DHT22;42426;46.104;19.656;2023-06-22T04:45:46;615.20;2252.80
56123;DHT22;42426;46.104;19.656;2023-06-22T04:48:12;615.30;2252.80
56123;DHT22;42426;46.104;19.656;2023-06-22T04:50:42;615.30;2252.80
56123;DHT22;42426;46.104;19.656;2023-06-22T04:53:08;615.30;2227.20
56123;DHT22;42426;46.104;19.656;2023-06-22T04:55:37;615.30;2227.20
56123;DHT22;42426;46.104;19.656;2023-06-22T04:58:03;640.00;2227.20
56123;DHT22;42426;46.104;19.656;2023-06-22T05:00:34;640.00;2227.20
56123;DHT22;42426;46.104;19.656;2023-06-22T05:03:04;640.00;2227.20
56123;DHT22;42426;46.104;19.656;2023-06-22T05:05:32;640.00;2227.20
56123;DHT22;42426;46.104;19.656;2023-06-22T05:07:57;640.10;2227.20
56123;DHT22;42426;46.104;19.656;2023-06-22T05:10:26;640.10;2227.20
56123;DHT22;42426;46.104;19.656;2023-06-22T05:12:52;640.10;2227.20
56123;DHT22;42426;46.104;19.656;2023-06-22T05:15:18;640.20;2227.20
56123;DHT22;42426;46.104;19.656;2023-06-22T05:17:48;640.10;2227.20
56123;DHT22;42426;46.104;19.656;2023-06-22T05:20:14;640.30;2227.20
56123;DHT22;42426;46.104;19.656;2023-06-22T05:22:43;640.30;2201.60
56123;DHT22;42426;46.104;19.656;2023-06-22T05:25:11;640.30;2201.60
56123;DHT22;42426;46.104;19.656;2023-06-22T05:27:37;640.40;2201.60
56123;DHT22;42426;46.104;19.656;2023-06-22T05:30:09;640.40;2201.60
56123;DHT22;42426;46.104;19.656;2023-06-22T05:32:36;640.50;2201.60
56123;DHT22;42426;46.104;19.656;2023-06-22T05:35:03;640.50;2201.60
56123;DHT22;42426;46.104;19.656;2023-06-22T05:37:29;640.50;2201.60
56123;DHT22;42426;46.104;19.656;2023-06-22T05:39:55;640.50;2201.60
56123;DHT22;42426;46.104;19.656;2023-06-22T05:42:21;640.60;2201.60
56123;DHT22;42426;46.104;19.656;2023-06-22T05:44:49;640.70;2201.60
56123;DHT22;42426;46.104;19.656;2023-06-22T05:47:15;640.70;2176.00
56123;DHT22;42426;46.104;19.656;2023-06-22T05:49:41;640.70;2176.00
56123;DHT22;42426;46.104;19.656;2023-06-22T05:52:07;640.70;2176.00
56123;DHT22;42426;46.104;19.656;2023-06-22T05:54:33;640.70;2176.00
56123;DHT22;42426;46.104;19.656;2023-06-22T05:56:59;640.80;2176.00
56123;DHT22;42426;46.104;19.656;2023-06-22T05:59:26;640.80;2176.00
56123;DHT22;42426;46.104;19.656;2023-06-22T06:01:52;640.90;2176.00
56123;DHT22;42426;46.104;19.656;2023-06-22T06:04:18;665.60;2201.60
56123;DHT22;42426;46.104;19.656;2023-06-22T06:06:44;665.60;2201.60
56123;DHT22;42426;46.104;19.656;2023-06-22T06:09:10;665.70;2176.00
56123;DHT22;42426;46.104;19.656;2023-06-22T06:11:37;665.70;2176.00
56123;DHT22;42426;46.104;19.656;2023-06-22T06:14:03;665.90;2176.00
56123;DHT22;42426;46.104;19.656;2023-06-22T06:16:29;665.90;2176.00
56123;DHT22;42426;46.104;19.656;2023-06-22T06:18:54;666.00;2150.40
56123;DHT22;42426;46.104;19.656;2023-06-22T06:21:21;666.00;2150.40
56123;DHT22;42426;46.104;19.656;2023-06-22T06:23:47;666.10;2150.40
56123;DHT22;42426;46.104;19.656;2023-06-22T06:26:13;666.10;2150.40
56123;DHT22;42426;46.104;19.656;2023-06-22T06:28:46;666.20;2150.40
56123;DHT22;42426;46.104;19.656;2023-06-22T06:31:12;666.20;2124.80
56123;DHT22;42426;46.104;19.656;2023-06-22T06:33:42;666.40;2124.80
56123;DHT22;42426;46.104;19.656;2023-06-22T06:36:08;666.50;2099.20
56123;DHT22;42426;46.104;19.656;2023-06-22T06:38:33;666.40;2099.20
56123;DHT22;42426;46.104;19.656;2023-06-22T06:40:59;666.50;2099.20
56123;DHT22;42426;46.104;19.656;2023-06-22T06:43:25;666.50;2099.20
56123;DHT22;42426;46.104;19.656;2023-06-22T06:45:51;666.50;2099.20
56123;DHT22;42426;46.104;19.656;2023-06-22T06:48:17;691.20;2073.60
56123;DHT22;42426;46.104;19.656;2023-06-22T06:50:43;691.30;2073.60
56123;DHT22;42426;46.104;19.656;2023-06-22T06:53:09;691.30;2073.60
56123;DHT22;42426;46.104;19.656;2023-06-22T06:55:36;691.50;2073.60
56123;DHT22;42426;46.104;19.656;2023-06-22T06:58:03;691.50;2073.60
56123;DHT22;42426;46.104;19.656;2023-06-22T07:00:33;691.50;2073.60
56123;DHT22;42426;46.104;19.656;2023-06-22T07:02:58;691.60;2048.00
56123;DHT22;42426;46.104;19.656;2023-06-22T07:05:24;691.70;2048.00
56123;DHT22;42426;46.104;19.656;2023-06-22T07:07:50;691.70;2022.40
56123;DHT22;42426;46.104;19.656;2023-06-22T07:10:16;692.00;1971.20
56123;DHT22;42426;46.104;19.656;2023-06-22T07:12:41;691.90;1996.80
56123;DHT22;42426;46.104;19.656;2023-06-22T07:22:33;717.10;1996.80
56123;DHT22;42426;46.104;19.656;2023-06-22T07:24:59;716.90;1996.80
56123;DHT22;42426;46.104;19.656;2023-06-22T07:27:24;716.90;1996.80
56123;DHT22;42426;46.104;19.656;2023-06-22T07:29:50;717.10;1996.80
56123;DHT22;42426;46.104;19.656;2023-06-22T07:34:42;717.40;1920.00
56123;DHT22;42426;46.104;19.656;2023-06-22T07:37:09;717.30;1945.60
56123;DHT22;42426;46.104;19.656;2023-06-22T07:39:35;717.20;1971.20
56123;DHT22;42426;46.104;19.656;2023-06-22T07:42:00;717.30;1945.60
56123;DHT22;42426;46.104;19.656;2023-06-22T07:44:26;717.30;1945.60
56123;DHT22;42426;46.104;19.656;2023-06-22T07:46:52;717.40;1945.60
56123;DHT22;42426;46.104;19.656;2023-06-22T07:49:18;717.40;1920.00
56123;DHT22;42426;46.104;19.656;2023-06-22T07:51:43;717.40;1920.00
56123;DHT22;42426;46.104;19.656;2023-06-22T07:57:31;717.60;1894.40
56123;DHT22;42426;46.104;19.656;2023-06-22T08:03:48;717.60;1894.40
56123;DHT22;42426;46.104;19.656;2023-06-22T08:06:14;717.70;1894.40
56123;DHT22;42426;46.104;19.656;2023-06-22T08:08:40;717.70;1894.40
56123;DHT22;42426;46.104;19.656;2023-06-22T08:11:06;742.40;1894.40
56123;DHT22;42426;46.104;19.656;2023-06-22T08:13:32;742.40;1894.40
56123;DHT22;42426;46.104;19.656;2023-06-22T08:15:58;742.50;1894.40
56123;DHT22;42426;46.104;19.656;2023-06-22T08:18:24;742.50;1868.80
56123;DHT22;42426;46.104;19.656;2023-06-22T08:20:50;742.50;1894.40
56123;DHT22;42426;46.104;19.656;2023-06-22T08:23:17;742.70;1894.40
56123;DHT22;42426;46.104;19.656;2023-06-22T08:25:42;742.70;1868.80
56123;DHT22;42426;46.104;19.656;2023-06-22T08:28:08;742.80;1868.80
56123;DHT22;42426;46.104;19.656;2023-06-22T08:30:34;742.80;1843.20
56123;DHT22;42426;46.104;19.656;2023-06-22T08:33:00;742.90;1817.60
56123;DHT22;42426;46.104;19.656;2023-06-22T08:35:26;742.90;1817.60
56123;DHT22;42426;46.104;19.656;2023-06-22T08:37:51;742.90;1792.00
56123;DHT22;42426;46.104;19.656;2023-06-22T08:40:21;743.00;1817.60
56123;DHT22;42426;46.104;19.656;2023-06-22T08:42:47;743.10;1817.60
56123;DHT22;42426;46.104;19.656;2023-06-22T08:45:13;743.20;1843.20
56123;DHT22;42426;46.104;19.656;2023-06-22T08:47:40;743.20;1843.20
56123;DHT22;42426;46.104;19.656;2023-06-22T08:53:30;743.30;1817.60
56123;DHT22;42426;46.104;19.656;2023-06-22T08:59:18;768.00;1792.00
56123;DHT22;42426;46.104;19.656;2023-06-22T09:05:05;768.30;1766.40
56123;DHT22;42426;46.104;19.656;2023-06-22T09:10:53;768.50;1740.80
56123;DHT22;42426;46.104;19.656;2023-06-22T09:20:10;768.50;1740.80
56123;DHT22;42426;46.104;19.656;2023-06-22T09:25:58;768.80;1715.20
56123;DHT22;42426;46.104;19.656;2023-06-22T09:28:24;768.70;1715.20
56123;DHT22;42426;46.104;19.656;2023-06-22T09:30:50;768.80;1715.20
56123;DHT22;42426;46.104;19.656;2023-06-22T09:33:16;768.90;1715.20
56123;DHT22;42426;46.104;19.656;2023-06-22T09:35:41;768.90;1689.60
56123;DHT22;42426;46.104;19.656;2023-06-22T09:38:07;793.60;1715.20
56123;DHT22;42426;46.104;19.656;2023-06-22T09:40:33;793.60;1689.60
56123;DHT22;42426;46.104;19.656;2023-06-22T09:43:05;793.60;1664.00
56123;DHT22;42426;46.104;19.656;2023-06-22T09:45:31;793.60;1689.60
56123;DHT22;42426;46.104;19.656;2023-06-22T09:47:57;793.70;1689.60
56123;DHT22;42426;46.104;19.656;2023-06-22T09:50:23;793.90;1689.60
56123;DHT22;42426;46.104;19.656;2023-06-22T09:52:49;793.90;1715.20
56123;DHT22;42426;46.104;19.656;2023-06-22T09:55:22;794.00;1715.20
56123;DHT22;42426;46.104;19.656;2023-06-22T09:57:50;794.00;1689.60
56123;DHT22;42426;46.104;19.656;2023-06-22T10:00:17;794.00;1689.60
56123;DHT22;42426;46.104;19.656;2023-06-22T10:02:42;794.10;1715.20
56123;DHT22;42426;46.104;19.656;2023-06-22T10:05:08;794.30;1664.00
56123;DHT22;42426;46.104;19.656;2023-06-22T10:07:34;794.40;1638.40
56123;DHT22;42426;46.104;19.656;2023-06-22T10:10:06;794.50;1638.40
56123;DHT22;42426;46.104;19.656;2023-06-22T10:12:32;794.50;1638.40
56123;DHT22;42426;46.104;19.656;2023-06-22T10:14:58;819.20;1638.40
56123;DHT22;42426;46.104;19.656;2023-06-22T10:17:23;819.30;1612.80
56123;DHT22;42426;46.104;19.656;2023-06-22T10:19:49;819.40;1587.20
56123;DHT22;42426;46.104;19.656;2023-06-22T10:22:15;819.40;1561.60
56123;DHT22;42426;46.104;19.656;2023-06-22T10:24:40;819.40;1587.20
56123;DHT22;42426;46.104;19.656;2023-06-22T10:27:13;819.50;1587.20
56123;DHT22;42426;46.104;19.656;2023-06-22T10:29:39;819.50;1612.80
56123;DHT22;42426;46.104;19.656;2023-06-22T10:32:06;819.50;1612.80
56123;DHT22;42426;46.104;19.656;2023-06-22T10:34:32;819.50;1612.80
56123;DHT22;42426;46.104;19.656;2023-06-22T10:36:58;819.60;1612.80
56123;DHT22;42426;46.104;19.656;2023-06-22T10:39:24;819.70;1587.20
56123;DHT22;42426;46.104;19.656;2023-06-22T10:41:49;819.60;1561.60
56123;DHT22;42426;46.104;19.656;2023-06-22T10:44:15;819.70;1561.60
56123;DHT22;42426;46.104;19.656;2023-06-22T10:46:43;819.80;1587.20
56123;DHT22;42426;46.104;19.656;2023-06-22T10:49:08;819.80;1612.80
56123;DHT22;42426;46.104;19.656;2023-06-22T10:51:34;819.90;1638.40
56123;DHT22;42426;46.104;19.656;2023-06-22T10:54:00;820.00;1638.40
56123;DHT22;42426;46.104;19.656;2023-06-22T10:56:25;819.90;1638.40
56123;DHT22;42426;46.104;19.656;2023-06-22T10:58:51;819.90;1638.40
56123;DHT22;42426;46.104;19.656;2023-06-22T11:01:17;820.00;1664.00
56123;DHT22;42426;46.104;19.656;2023-06-22T11:03:43;820.00;1664.00
56123;DHT22;42426;46.104;19.656;2023-06-22T11:06:08;820.00;1638.40
56123;DHT22;42426;46.104;19.656;2023-06-22T11:08:34;820.00;1638.40
56123;DHT22;42426;46.104;19.656;2023-06-22T11:11:00;820.00;1664.00
56123;DHT22;42426;46.104;19.656;2023-06-22T11:13:26;820.00;1664.00
56123;DHT22;42426;46.104;19.656;2023-06-22T11:15:51;820.00;1664.00
56123;DHT22;42426;46.104;19.656;2023-06-22T11:18:17;820.00;1689.60
56123;DHT22;42426;46.104;19.656;2023-06-22T11:20:44;820.00;1689.60
56123;DHT22;42426;46.104;19.656;2023-06-22T11:23:10;820.00;1689.60
56123;DHT22;42426;46.104;19.656;2023-06-22T11:25:37;820.00;1664.00
56123;DHT22;42426;46.104;19.656;2023-06-22T11:28:04;820.10;1664.00
56123;DHT22;42426;46.104;19.656;2023-06-22T11:30:30;844.80;1689.60
56123;DHT22;42426;46.104;19.656;2023-06-22T11:32:58;844.80;1689.60
56123;DHT22;42426;46.104;19.656;2023-06-22T11:35:24;844.80;1689.60
56123;DHT22;42426;46.104;19.656;2023-06-22T11:37:50;844.80;1715.20
56123;DHT22;42426;46.104;19.656;2023-06-22T11:40:16;844.90;1715.20
56123;DHT22;42426;46.104;19.656;2023-06-22T11:42:43;844.90;1715.20
56123;DHT22;42426;46.104;19.656;2023-06-22T11:45:09;844.90;1715.20
56123;DHT22;42426;46.104;19.656;2023-06-22T11:47:35;844.90;1715.20
56123;DHT22;42426;46.104;19.656;2023-06-22T11:50:03;845.10;1689.60
56123;DHT22;42426;46.104;19.656;2023-06-22T11:52:29;845.10;1689.60
56123;DHT22;42426;46.104;19.656;2023-06-22T11:54:55;845.20;1689.60
56123;DHT22;42426;46.104;19.656;2023-06-22T11:57:20;845.20;1689.60
56123;DHT22;42426;46.104;19.656;2023-06-22T11:59:46;845.20;1689.60
56123;DHT22;42426;46.104;19.656;2023-06-22T12:02:12;845.20;1689.60
56123;DHT22;42426;46.104;19.656;2023-06-22T12:04:37;845.20;1715.20
56123;DHT22;42426;46.104;19.656;2023-06-22T12:07:03;845.10;1715.20
56123;DHT22;42426;46.104;19.656;2023-06-22T12:09:29;845.10;1689.60
56123;DHT22;42426;46.104;19.656;2023-06-22T12:11:55;845.20;1689.60
56123;DHT22;42426;46.104;19.656;2023-06-22T12:14:21;845.20;1689.60
56123;DHT22;42426;46.104;19.656;2023-06-22T12:16:46;845.20;1715.20
56123;DHT22;42426;46.104;19.656;2023-06-22T12:19:12;845.30;1715.20
56123;DHT22;42426;46.104;19.656;2023-06-22T12:21:38;845.30;1689.60
56123;DHT22;42426;46.104;19.656;2023-06-22T12:24:06;845.30;1689.60
56123;DHT22;42426;46.104;19.656;2023-06-22T12:26:31;845.30;1689.60
56123;DHT22;42426;46.104;19.656;2023-06-22T12:28:57;845.30;1715.20
56123;DHT22;42426;46.104;19.656;2023-06-22T12:31:23;845.40;1689.60
56123;DHT22;42426;46.104;19.656;2023-06-22T12:33:50;845.40;1689.60
56123;DHT22;42426;46.104;19.656;2023-06-22T12:36:15;845.40;1689.60
56123;DHT22;42426;46.104;19.656;2023-06-22T12:38:42;845.40;1689.60
56123;DHT22;42426;46.104;19.656;2023-06-22T12:41:07;845.50;1689.60
56123;DHT22;42426;46.104;19.656;2023-06-22T12:43:33;845.50;1689.60
56123;DHT22;42426;46.104;19.656;2023-06-22T12:45:59;845.50;1664.00
56123;DHT22;42426;46.104;19.656;2023-06-22T12:48:27;845.50;1664.00
56123;DHT22;42426;46.104;19.656;2023-06-22T12:50:54;845.60;1689.60
56123;DHT22;42426;46.104;19.656;2023-06-22T12:53:20;845.60;1664.00
56123;DHT22;42426;46.104;19.656;2023-06-22T12:55:45;845.70;1638.40
56123;DHT22;42426;46.104;19.656;2023-06-22T12:58:11;845.70;1638.40
56123;DHT22;42426;46.104;19.656;2023-06-22T13:00:38;845.70;1638.40
56123;DHT22;42426;46.104;19.656;2023-06-22T13:03:04;870.40;1638.40
56123;DHT22;42426;46.104;19.656;2023-06-22T13:05:30;870.50;1638.40
56123;DHT22;42426;46.104;19.656;2023-06-22T13:07:56;870.50;1638.40
56123;DHT22;42426;46.104;19.656;2023-06-22T13:10:22;870.50;1638.40
56123;DHT22;42426;46.104;19.656;2023-06-22T13:12:47;870.50;1612.80
56123;DHT22;42426;46.104;19.656;2023-06-22T13:15:13;870.50;1612.80
56123;DHT22;42426;46.104;19.656;2023-06-22T13:17:39;870.50;1612.80
56123;DHT22;42426;46.104;19.656;2023-06-22T13:20:05;870.50;1638.40
56123;DHT22;42426;46.104;19.656;2023-06-22T13:22:33;870.50;1638.40
56123;DHT22;42426;46.104;19.656;2023-06-22T13:25:00;870.50;1638.40
56123;DHT22;42426;46.104;19.656;2023-06-22T13:27:26;870.50;1638.40
56123;DHT22;42426;46.104;19.656;2023-06-22T13:29:52;870.60;1612.80
56123;DHT22;42426;46.104;19.656;2023-06-22T13:32:19;870.60;1612.80
56123;DHT22;42426;46.104;19.656;2023-06-22T13:34:45;870.70;1638.40
56123;DHT22;42426;46.104;19.656;2023-06-22T13:37:11;870.70;1612.80
56123;DHT22;42426;46.104;19.656;2023-06-22T13:39:36;870.70;1612.80
56123;DHT22;42426;46.104;19.656;2023-06-22T13:42:02;870.70;1612.80
56123;DHT22;42426;46.104;19.656;2023-06-22T13:44:28;870.60;1612.80
56123;DHT22;42426;46.104;19.656;2023-06-22T13:46:57;870.70;1587.20
56123;DHT22;42426;46.104;19.656;2023-06-22T13:49:23;870.70;1612.80
56123;DHT22;42426;46.104;19.656;2023-06-22T13:51:49;870.70;1587.20
56123;DHT22;42426;46.104;19.656;2023-06-22T13:54:16;870.70;1587.20
56123;DHT22;42426;46.104;19.656;2023-06-22T13:56:43;870.70;1587.20
56123;DHT22;42426;46.104;19.656;2023-06-22T13:59:09;870.80;1587.20
56123;DHT22;42426;46.104;19.656;2023-06-22T14:01:36;870.80;1587.20
56123;DHT22;42426;46.104;19.656;2023-06-22T14:04:02;870.80;1587.20
56123;DHT22;42426;46.104;19.656;2023-06-22T14:06:29;870.90;1587.20
56123;DHT22;42426;46.104;19.656;2023-06-22T14:08:54;871.00;1587.20
56123;DHT22;42426;46.104;19.656;2023-06-22T14:11:20;871.00;1587.20
56123;DHT22;42426;46.104;19.656;2023-06-22T14:13:46;871.20;1587.20
56123;DHT22;42426;46.104;19.656;2023-06-22T14:16:12;871.30;1587.20
56123;DHT22;42426;46.104;19.656;2023-06-22T14:18:37;896.00;1561.60
56123;DHT22;42426;46.104;19.656;2023-06-22T14:21:03;896.00;1561.60
56123;DHT22;42426;46.104;19.656;2023-06-22T14:23:29;896.00;1561.60
56123;DHT22;42426;46.104;19.656;2023-06-22T14:25:55;896.00;1561.60
56123;DHT22;42426;46.104;19.656;2023-06-22T14:28:20;896.00;1510.40
56123;DHT22;42426;46.104;19.656;2023-06-22T14:30:46;896.10;1536.00
56123;DHT22;42426;46.104;19.656;2023-06-22T14:33:12;896.20;1536.00
56123;DHT22;42426;46.104;19.656;2023-06-22T14:35:38;896.30;1536.00
56123;DHT22;42426;46.104;19.656;2023-06-22T14:38:04;896.10;1536.00
56123;DHT22;42426;46.104;19.656;2023-06-22T14:40:30;871.30;1536.00
56123;DHT22;42426;46.104;19.656;2023-06-22T14:42:56;871.20;1536.00
56123;DHT22;42426;46.104;19.656;2023-06-22T14:45:23;871.10;1536.00
56123;DHT22;42426;46.104;19.656;2023-06-22T14:47:49;871.00;1536.00
56123;DHT22;42426;46.104;19.656;2023-06-22T14:50:14;870.90;1536.00
56123;DHT22;42426;46.104;19.656;2023-06-22T14:52:40;870.90;1561.60
56123;DHT22;42426;46.104;19.656;2023-06-22T14:55:06;870.90;1561.60
56123;DHT22;42426;46.104;19.656;2023-06-22T14:57:34;871.00;1561.60
56123;DHT22;42426;46.104;19.656;2023-06-22T15:00:00;871.20;1561.60
56123;DHT22;42426;46.104;19.656;2023-06-22T15:02:27;871.30;1561.60
56123;DHT22;42426;46.104;19.656;2023-06-22T15:08:15;896.20;1536.00
56123;DHT22;42426;46.104;19.656;2023-06-22T15:14:03;896.40;1510.40
56123;DHT22;42426;46.104;19.656;2023-06-22T15:23:38;921.60;1433.60
56123;DHT22;42426;46.104;19.656;2023-06-22T15:29:25;921.70;1433.60
56123;DHT22;42426;46.104;19.656;2023-06-22T15:35:13;896.80;1408.00
56123;DHT22;42426;46.104;19.656;2023-06-22T15:41:03;896.30;1433.60
56123;DHT22;42426;46.104;19.656;2023-06-22T15:46:50;896.00;1484.80